sensor_id;sensor_type;location;lat;lon;timestamp;temperature;humidity
26224;DHT22;14820;48.682;8.890;2022-08-21T00:01:58;14.80;99.90
26224;DHT22;14820;48.682;8.890;2022-08-21T00:04:24;14.80;99.90
26224;DHT22;14820;48.682;8.890;2022-08-21T00:06:51;14.80;99.90
26224;DHT22;14820;48.682;8.890;2022-08-21T00:09:18;14.70;99.90
26224;DHT22;14820;48.682;8.890;2022-08-21T00:11:44;14.70;99.90
26224;DHT22;14820;48.682;8.890;2022-08-21T00:14:11;14.70;99.90
26224;DHT22;14820;48.682;8.890;2022-08-21T00:16:37;14.70;99.90
26224;DHT22;14820;48.682;8.890;2022-08-21T00:19:05;14.60;99.90
26224;DHT22;14820;48.682;8.890;2022-08-21T00:21:32;14.60;99.90
26224;DHT22;14820;48.682;8.890;2022-08-21T00:23:58;14.60;99.90
26224;DHT22;14820;48.682;8.890;2022-08-21T00:26:23;14.60;99.90
26224;DHT22;14820;48.682;8.890;2022-08-21T00:28:49;14.40;99.90
26224;DHT22;14820;48.682;8.890;2022-08-21T00:31:16;14.40;99.90
26224;DHT22;14820;48.682;8.890;2022-08-21T00:33:42;14.30;99.90
26224;DHT22;14820;48.682;8.890;2022-08-21T00:36:08;14.30;99.90
26224;DHT22;14820;48.682;8.890;2022-08-21T00:38:34;14.30;99.90
26224;DHT22;14820;48.682;8.890;2022-08-21T00:41:02;14.40;99.90
26224;DHT22;14820;48.682;8.890;2022-08-21T00:43:33;14.40;99.90
26224;DHT22;14820;48.682;8.890;2022-08-21T00:45:59;14.50;99.90
26224;DHT22;14820;48.682;8.890;2022-08-21T00:48:26;14.40;99.90
26224;DHT22;14820;48.682;8.890;2022-08-21T00:51:00;14.50;99.90
26224;DHT22;14820;48.682;8.890;2022-08-21T00:53:28;14.40;99.90
26224;DHT22;14820;48.682;8.890;2022-08-21T00:55:54;14.40;99.90
26224;DHT22;14820;48.682;8.890;2022-08-21T00:58:21;14.30;99.90
26224;DHT22;14820;48.682;8.890;2022-08-21T01:00:49;14.20;99.90
26224;DHT22;14820;48.682;8.890;2022-08-21T01:03:19;14.10;99.90
26224;DHT22;14820;48.682;8.890;2022-08-21T01:05:45;14.10;99.90
26224;DHT22;14820;48.682;8.890;2022-08-21T01:08:12;14.10;99.90
26224;DHT22;14820;48.682;8.890;2022-08-21T01:10:42;14.10;99.90
26224;DHT22;14820;48.682;8.890;2022-08-21T01:13:09;14.00;99.90
26224;DHT22;14820;48.682;8.890;2022-08-21T01:15:40;13.90;99.90
26224;DHT22;14820;48.682;8.890;2022-08-21T01:18:09;13.80;99.90
26224;DHT22;14820;48.682;8.890;2022-08-21T01:20:35;13.90;99.90
26224;DHT22;14820;48.682;8.890;2022-08-21T01:23:03;13.80;99.90
26224;DHT22;14820;48.682;8.890;2022-08-21T01:25:29;13.80;99.90
26224;DHT22;14820;48.682;8.890;2022-08-21T01:27:56;13.80;99.90
26224;DHT22;14820;48.682;8.890;2022-08-21T01:30:25;13.70;99.90
26224;DHT22;14820;48.682;8.890;2022-08-21T01:32:53;13.60;99.90
26224;DHT22;14820;48.682;8.890;2022-08-21T01:35:20;13.60;99.90
26224;DHT22;14820;48.682;8.890;2022-08-21T01:37:46;13.60;99.90
26224;DHT22;14820;48.682;8.890;2022-08-21T01:40:12;13.50;99.90
26224;DHT22;14820;48.682;8.890;2022-08-21T01:42:38;13.50;99.90
26224;DHT22;14820;48.682;8.890;2022-08-21T01:45:06;13.50;99.90
26224;DHT22;14820;48.682;8.890;2022-08-21T01:47:33;13.50;99.90
26224;DHT22;14820;48.682;8.890;2022-08-21T01:49:59;13.50;99.90
26224;DHT22;14820;48.682;8.890;2022-08-21T01:52:25;13.40;99.90
26224;DHT22;14820;48.682;8.890;2022-08-21T01:54:51;13.40;99.90
26224;DHT22;14820;48.682;8.890;2022-08-21T01:57:17;13.30;99.90
26224;DHT22;14820;48.682;8.890;2022-08-21T01:59:43;13.30;99.90
26224;DHT22;14820;48.682;8.890;2022-08-21T02:02:09;13.20;99.90
26224;DHT22;14820;48.682;8.890;2022-08-21T02:04:35;13.10;99.90
26224;DHT22;14820;48.682;8.890;2022-08-21T02:07:01;13.10;99.90
26224;DHT22;14820;48.682;8.890;2022-08-21T02:09:27;13.10;99.90
26224;DHT22;14820;48.682;8.890;2022-08-21T02:11:53;13.10;99.90
26224;DHT22;14820;48.682;8.890;2022-08-21T02:14:20;13.00;99.90
26224;DHT22;14820;48.682;8.890;2022-08-21T02:16:46;13.00;99.90
26224;DHT22;14820;48.682;8.890;2022-08-21T02:19:14;12.90;99.90
26224;DHT22;14820;48.682;8.890;2022-08-21T02:21:40;12.90;99.90
26224;DHT22;14820;48.682;8.890;2022-08-21T02:24:06;12.90;99.90
26224;DHT22;14820;48.682;8.890;2022-08-21T02:26:32;12.90;99.90
26224;DHT22;14820;48.682;8.890;2022-08-21T02:28:58;12.90;99.90
26224;DHT22;14820;48.682;8.890;2022-08-21T02:31:23;12.90;99.90
26224;DHT22;14820;48.682;8.890;2022-08-21T02:33:50;13.00;99.90
26224;DHT22;14820;48.682;8.890;2022-08-21T02:36:15;12.90;99.90
26224;DHT22;14820;48.682;8.890;2022-08-21T02:38:42;12.90;99.90
26224;DHT22;14820;48.682;8.890;2022-08-21T02:41:14;12.90;99.90
26224;DHT22;14820;48.682;8.890;2022-08-21T02:43:40;12.90;99.90
26224;DHT22;14820;48.682;8.890;2022-08-21T02:46:07;12.90;99.90
26224;DHT22;14820;48.682;8.890;2022-08-21T02:48:33;12.90;99.90
26224;DHT22;14820;48.682;8.890;2022-08-21T02:51:08;12.90;99.90
26224;DHT22;14820;48.682;8.890;2022-08-21T02:53:34;12.90;99.90
26224;DHT22;14820;48.682;8.890;2022-08-21T02:56:03;12.80;99.90
26224;DHT22;14820;48.682;8.890;2022-08-21T02:58:33;12.80;99.90
26224;DHT22;14820;48.682;8.890;2022-08-21T03:00:59;12.70;99.90
26224;DHT22;14820;48.682;8.890;2022-08-21T03:03:26;12.70;99.90
26224;DHT22;14820;48.682;8.890;2022-08-21T03:05:52;12.70;99.90
26224;DHT22;14820;48.682;8.890;2022-08-21T03:08:19;12.60;99.90
26224;DHT22;14820;48.682;8.890;2022-08-21T03:10:46;12.60;99.90
26224;DHT22;14820;48.682;8.890;2022-08-21T03:13:13;12.60;99.90
26224;DHT22;14820;48.682;8.890;2022-08-21T03:15:39;12.50;99.90
26224;DHT22;14820;48.682;8.890;2022-08-21T03:18:06;12.50;99.90
26224;DHT22;14820;48.682;8.890;2022-08-21T03:20:34;12.50;99.90
26224;DHT22;14820;48.682;8.890;2022-08-21T03:23:00;12.50;99.90
26224;DHT22;14820;48.682;8.890;2022-08-21T03:25:29;12.50;99.90
26224;DHT22;14820;48.682;8.890;2022-08-21T03:27:58;12.60;99.90
26224;DHT22;14820;48.682;8.890;2022-08-21T03:30:23;12.50;99.90
26224;DHT22;14820;48.682;8.890;2022-08-21T03:32:50;12.50;99.90
26224;DHT22;14820;48.682;8.890;2022-08-21T03:35:17;12.40;99.90
26224;DHT22;14820;48.682;8.890;2022-08-21T03:37:43;12.40;99.90
26224;DHT22;14820;48.682;8.890;2022-08-21T03:40:10;12.40;99.90
26224;DHT22;14820;48.682;8.890;2022-08-21T03:42:37;12.40;99.90
26224;DHT22;14820;48.682;8.890;2022-08-21T03:45:03;12.40;99.90
26224;DHT22;14820;48.682;8.890;2022-08-21T03:47:29;12.40;99.90
26224;DHT22;14820;48.682;8.890;2022-08-21T03:49:55;12.50;99.90
26224;DHT22;14820;48.682;8.890;2022-08-21T03:52:21;12.50;99.90
26224;DHT22;14820;48.682;8.890;2022-08-21T03:54:47;12.60;99.90
26224;DHT22;14820;48.682;8.890;2022-08-21T03:57:12;12.60;99.90
26224;DHT22;14820;48.682;8.890;2022-08-21T03:59:38;12.60;99.90
26224;DHT22;14820;48.682;8.890;2022-08-21T04:02:09;12.50;99.90
26224;DHT22;14820;48.682;8.890;2022-08-21T04:04:35;12.50;99.90
26224;DHT22;14820;48.682;8.890;2022-08-21T04:07:02;12.50;99.90
26224;DHT22;14820;48.682;8.890;2022-08-21T04:09:28;12.50;99.90
26224;DHT22;14820;48.682;8.890;2022-08-21T04:11:56;12.50;99.90
26224;DHT22;14820;48.682;8.890;2022-08-21T04:14:22;12.50;99.90
26224;DHT22;14820;48.682;8.890;2022-08-21T04:16:48;12.50;99.90
26224;DHT22;14820;48.682;8.890;2022-08-21T04:19:14;12.50;99.90
26224;DHT22;14820;48.682;8.890;2022-08-21T04:21:41;12.40;99.90
26224;DHT22;14820;48.682;8.890;2022-08-21T04:24:08;12.40;99.90
26224;DHT22;14820;48.682;8.890;2022-08-21T04:26:35;12.30;99.90
26224;DHT22;14820;48.682;8.890;2022-08-21T04:29:02;12.10;99.90
26224;DHT22;14820;48.682;8.890;2022-08-21T04:31:30;12.10;99.90
26224;DHT22;14820;48.682;8.890;2022-08-21T04:33:55;12.10;99.90
26224;DHT22;14820;48.682;8.890;2022-08-21T04:36:22;12.00;99.90
26224;DHT22;14820;48.682;8.890;2022-08-21T04:38:48;12.10;99.90
26224;DHT22;14820;48.682;8.890;2022-08-21T04:41:14;12.00;99.90
26224;DHT22;14820;48.682;8.890;2022-08-21T04:43:40;12.00;99.90
26224;DHT22;14820;48.682;8.890;2022-08-21T04:46:06;12.00;99.90
26224;DHT22;14820;48.682;8.890;2022-08-21T04:48:32;12.10;99.90
26224;DHT22;14820;48.682;8.890;2022-08-21T04:51:15;12.10;99.90
26224;DHT22;14820;48.682;8.890;2022-08-21T04:54:00;12.00;99.90
26224;DHT22;14820;48.682;8.890;2022-08-21T04:56:35;12.00;99.90
26224;DHT22;14820;48.682;8.890;2022-08-21T04:59:05;12.00;99.90
26224;DHT22;14820;48.682;8.890;2022-08-21T05:01:34;12.00;99.90
26224;DHT22;14820;48.682;8.890;2022-08-21T05:04:02;12.00;99.90
26224;DHT22;14820;48.682;8.890;2022-08-21T05:06:31;12.00;99.90
26224;DHT22;14820;48.682;8.890;2022-08-21T05:08:59;12.00;99.90
26224;DHT22;14820;48.682;8.890;2022-08-21T05:11:25;11.90;99.90
26224;DHT22;14820;48.682;8.890;2022-08-21T05:13:51;11.90;99.90
26224;DHT22;14820;48.682;8.890;2022-08-21T05:16:17;11.80;99.90
26224;DHT22;14820;48.682;8.890;2022-08-21T05:18:43;11.90;99.90
26224;DHT22;14820;48.682;8.890;2022-08-21T05:21:08;11.80;99.90
26224;DHT22;14820;48.682;8.890;2022-08-21T05:23:35;11.80;99.90
26224;DHT22;14820;48.682;8.890;2022-08-21T05:26:01;11.80;99.90
26224;DHT22;14820;48.682;8.890;2022-08-21T05:28:27;11.80;99.90
26224;DHT22;14820;48.682;8.890;2022-08-21T05:30:53;12.00;99.90
26224;DHT22;14820;48.682;8.890;2022-08-21T05:33:19;12.00;99.90
26224;DHT22;14820;48.682;8.890;2022-08-21T05:35:45;12.10;99.90
26224;DHT22;14820;48.682;8.890;2022-08-21T05:38:11;12.10;99.90
26224;DHT22;14820;48.682;8.890;2022-08-21T05:40:37;12.20;99.90
26224;DHT22;14820;48.682;8.890;2022-08-21T05:43:03;12.20;99.90
26224;DHT22;14820;48.682;8.890;2022-08-21T05:45:32;12.30;99.90
26224;DHT22;14820;48.682;8.890;2022-08-21T05:48:04;12.40;99.90
26224;DHT22;14820;48.682;8.890;2022-08-21T05:50:30;12.60;99.90
26224;DHT22;14820;48.682;8.890;2022-08-21T05:52:56;12.70;99.90
26224;DHT22;14820;48.682;8.890;2022-08-21T05:55:22;12.80;99.90
26224;DHT22;14820;48.682;8.890;2022-08-21T05:57:47;12.90;99.90
26224;DHT22;14820;48.682;8.890;2022-08-21T06:00:14;13.10;99.90
26224;DHT22;14820;48.682;8.890;2022-08-21T06:02:40;13.10;99.90
26224;DHT22;14820;48.682;8.890;2022-08-21T06:05:06;13.10;99.90
26224;DHT22;14820;48.682;8.890;2022-08-21T06:07:32;13.10;99.90
26224;DHT22;14820;48.682;8.890;2022-08-21T06:09:58;13.20;99.90
26224;DHT22;14820;48.682;8.890;2022-08-21T06:12:23;13.30;99.90
26224;DHT22;14820;48.682;8.890;2022-08-21T06:14:50;13.40;99.90
26224;DHT22;14820;48.682;8.890;2022-08-21T06:17:17;13.50;99.90
26224;DHT22;14820;48.682;8.890;2022-08-21T06:19:43;13.60;99.90
26224;DHT22;14820;48.682;8.890;2022-08-21T06:22:09;13.70;99.90
26224;DHT22;14820;48.682;8.890;2022-08-21T06:24:35;13.90;99.90
26224;DHT22;14820;48.682;8.890;2022-08-21T06:27:05;14.00;99.90
26224;DHT22;14820;48.682;8.890;2022-08-21T06:29:32;14.00;99.90
26224;DHT22;14820;48.682;8.890;2022-08-21T06:31:57;14.20;99.90
26224;DHT22;14820;48.682;8.890;2022-08-21T06:34:23;14.20;99.90
26224;DHT22;14820;48.682;8.890;2022-08-21T06:36:49;14.30;99.90
26224;DHT22;14820;48.682;8.890;2022-08-21T06:39:14;14.40;99.90
26224;DHT22;14820;48.682;8.890;2022-08-21T06:41:40;14.50;99.90
26224;DHT22;14820;48.682;8.890;2022-08-21T06:44:06;14.60;99.90
26224;DHT22;14820;48.682;8.890;2022-08-21T06:46:31;14.70;99.90
26224;DHT22;14820;48.682;8.890;2022-08-21T06:48:58;14.80;99.90
26224;DHT22;14820;48.682;8.890;2022-08-21T06:51:25;14.80;99.90
26224;DHT22;14820;48.682;8.890;2022-08-21T06:53:51;15.00;99.90
26224;DHT22;14820;48.682;8.890;2022-08-21T06:56:17;15.10;99.90
26224;DHT22;14820;48.682;8.890;2022-08-21T06:58:43;15.20;99.90
26224;DHT22;14820;48.682;8.890;2022-08-21T07:01:09;15.30;99.90
26224;DHT22;14820;48.682;8.890;2022-08-21T07:03:40;15.40;99.90
26224;DHT22;14820;48.682;8.890;2022-08-21T07:06:09;15.60;99.90
26224;DHT22;14820;48.682;8.890;2022-08-21T07:08:36;15.70;99.90
26224;DHT22;14820;48.682;8.890;2022-08-21T07:11:05;15.80;99.90
26224;DHT22;14820;48.682;8.890;2022-08-21T07:13:32;15.90;99.90
26224;DHT22;14820;48.682;8.890;2022-08-21T07:15:58;16.00;99.90
26224;DHT22;14820;48.682;8.890;2022-08-21T07:18:24;16.10;99.90
26224;DHT22;14820;48.682;8.890;2022-08-21T07:20:50;16.20;99.90
26224;DHT22;14820;48.682;8.890;2022-08-21T07:23:26;16.30;99.90
26224;DHT22;14820;48.682;8.890;2022-08-21T07:25:52;16.50;99.90
26224;DHT22;14820;48.682;8.890;2022-08-21T07:28:18;16.60;99.90
26224;DHT22;14820;48.682;8.890;2022-08-21T07:30:44;16.80;99.90
26224;DHT22;14820;48.682;8.890;2022-08-21T07:33:10;17.00;99.90
26224;DHT22;14820;48.682;8.890;2022-08-21T07:35:36;17.20;99.90
26224;DHT22;14820;48.682;8.890;2022-08-21T07:38:01;17.40;99.90
26224;DHT22;14820;48.682;8.890;2022-08-21T07:40:27;17.50;99.90
26224;DHT22;14820;48.682;8.890;2022-08-21T07:42:53;17.70;99.90
26224;DHT22;14820;48.682;8.890;2022-08-21T07:45:21;17.80;99.90
26224;DHT22;14820;48.682;8.890;2022-08-21T07:47:48;17.90;99.90
26224;DHT22;14820;48.682;8.890;2022-08-21T07:50:15;18.10;99.90
26224;DHT22;14820;48.682;8.890;2022-08-21T07:52:42;18.30;99.90
26224;DHT22;14820;48.682;8.890;2022-08-21T07:55:10;18.50;99.90
26224;DHT22;14820;48.682;8.890;2022-08-21T07:57:36;18.70;99.90
26224;DHT22;14820;48.682;8.890;2022-08-21T08:00:08;18.80;99.90
26224;DHT22;14820;48.682;8.890;2022-08-21T08:02:35;18.90;99.90
26224;DHT22;14820;48.682;8.890;2022-08-21T08:05:02;19.00;99.90
26224;DHT22;14820;48.682;8.890;2022-08-21T08:07:29;19.10;99.90
26224;DHT22;14820;48.682;8.890;2022-08-21T08:09:55;19.10;99.90
26224;DHT22;14820;48.682;8.890;2022-08-21T08:12:22;19.20;99.90
26224;DHT22;14820;48.682;8.890;2022-08-21T08:14:48;19.20;99.90
26224;DHT22;14820;48.682;8.890;2022-08-21T08:17:13;19.30;99.90
26224;DHT22;14820;48.682;8.890;2022-08-21T08:19:39;19.40;99.90
26224;DHT22;14820;48.682;8.890;2022-08-21T08:22:16;19.50;99.90
26224;DHT22;14820;48.682;8.890;2022-08-21T08:24:45;19.60;99.90
26224;DHT22;14820;48.682;8.890;2022-08-21T08:27:11;19.70;99.90
26224;DHT22;14820;48.682;8.890;2022-08-21T08:29:37;19.70;99.90
26224;DHT22;14820;48.682;8.890;2022-08-21T08:32:04;19.70;99.90
26224;DHT22;14820;48.682;8.890;2022-08-21T08:34:30;19.80;99.90
26224;DHT22;14820;48.682;8.890;2022-08-21T08:36:56;19.80;99.90
26224;DHT22;14820;48.682;8.890;2022-08-21T08:39:24;19.90;99.90
26224;DHT22;14820;48.682;8.890;2022-08-21T08:41:56;20.00;99.90
26224;DHT22;14820;48.682;8.890;2022-08-21T08:44:24;20.20;99.90
26224;DHT22;14820;48.682;8.890;2022-08-21T08:46:51;20.30;99.90
26224;DHT22;14820;48.682;8.890;2022-08-21T08:49:29;20.40;99.90
26224;DHT22;14820;48.682;8.890;2022-08-21T08:52:06;20.50;99.90
26224;DHT22;14820;48.682;8.890;2022-08-21T08:54:37;20.70;99.90
26224;DHT22;14820;48.682;8.890;2022-08-21T08:57:09;20.80;99.90
26224;DHT22;14820;48.682;8.890;2022-08-21T08:59:45;20.90;99.90
26224;DHT22;14820;48.682;8.890;2022-08-21T09:02:14;21.00;99.90
26224;DHT22;14820;48.682;8.890;2022-08-21T09:04:42;21.00;99.90
26224;DHT22;14820;48.682;8.890;2022-08-21T09:07:24;21.10;99.90
26224;DHT22;14820;48.682;8.890;2022-08-21T09:10:06;21.20;99.90
26224;DHT22;14820;48.682;8.890;2022-08-21T09:15:23;21.20;99.90
26224;DHT22;14820;48.682;8.890;2022-08-21T09:20:38;21.40;99.90
26224;DHT22;14820;48.682;8.890;2022-08-21T09:23:21;21.40;99.90
26224;DHT22;14820;48.682;8.890;2022-08-21T09:26:05;21.40;99.90
26224;DHT22;14820;48.682;8.890;2022-08-21T09:28:34;21.40;99.90
26224;DHT22;14820;48.682;8.890;2022-08-21T09:31:10;21.40;99.90
26224;DHT22;14820;48.682;8.890;2022-08-21T09:33:37;21.50;99.90
26224;DHT22;14820;48.682;8.890;2022-08-21T09:36:03;21.60;99.90
26224;DHT22;14820;48.682;8.890;2022-08-21T09:38:31;21.80;99.90
26224;DHT22;14820;48.682;8.890;2022-08-21T09:41:08;21.80;99.90
26224;DHT22;14820;48.682;8.890;2022-08-21T09:43:36;21.80;99.90
26224;DHT22;14820;48.682;8.890;2022-08-21T09:46:04;21.90;99.90
26224;DHT22;14820;48.682;8.890;2022-08-21T09:48:42;22.00;99.90
26224;DHT22;14820;48.682;8.890;2022-08-21T09:51:15;22.10;99.90
26224;DHT22;14820;48.682;8.890;2022-08-21T09:53:46;22.10;99.90
26224;DHT22;14820;48.682;8.890;2022-08-21T09:57:11;22.20;99.60
26224;DHT22;14820;48.682;8.890;2022-08-21T09:59:30;22.20;99.10
26224;DHT22;14820;48.682;8.890;2022-08-21T10:01:58;22.10;98.90
26224;DHT22;14820;48.682;8.890;2022-08-21T10:04:34;22.10;98.70
26224;DHT22;14820;48.682;8.890;2022-08-21T10:07:11;22.00;98.80
26224;DHT22;14820;48.682;8.890;2022-08-21T10:09:37;22.10;98.90
26224;DHT22;14820;48.682;8.890;2022-08-21T10:14:47;22.10;97.60
26224;DHT22;14820;48.682;8.890;2022-08-21T10:20:04;22.20;97.60
26224;DHT22;14820;48.682;8.890;2022-08-21T10:22:34;22.30;97.00
26224;DHT22;14820;48.682;8.890;2022-08-21T10:25:19;22.40;96.90
26224;DHT22;14820;48.682;8.890;2022-08-21T10:30:51;22.60;96.40
26224;DHT22;14820;48.682;8.890;2022-08-21T10:33:40;22.70;96.10
26224;DHT22;14820;48.682;8.890;2022-08-21T10:36:18;22.90;97.00
26224;DHT22;14820;48.682;8.890;2022-08-21T10:47:13;23.50;95.30
26224;DHT22;14820;48.682;8.890;2022-08-21T10:57:59;23.60;93.30
26224;DHT22;14820;48.682;8.890;2022-08-21T11:00:48;23.70;93.80
26224;DHT22;14820;48.682;8.890;2022-08-21T11:03:32;23.90;93.80
26224;DHT22;14820;48.682;8.890;2022-08-21T11:06:08;24.00;93.10
26224;DHT22;14820;48.682;8.890;2022-08-21T11:08:38;24.10;92.40
26224;DHT22;14820;48.682;8.890;2022-08-21T11:11:12;24.20;91.70
26224;DHT22;14820;48.682;8.890;2022-08-21T11:13:59;24.40;91.40
26224;DHT22;14820;48.682;8.890;2022-08-21T11:16:44;24.30;90.40
26224;DHT22;14820;48.682;8.890;2022-08-21T11:19:23;24.00;90.30
26224;DHT22;14820;48.682;8.890;2022-08-21T11:24:46;23.90;91.40
26224;DHT22;14820;48.682;8.890;2022-08-21T11:30:00;24.20;90.20
26224;DHT22;14820;48.682;8.890;2022-08-21T11:43:28;24.80;87.40
26224;DHT22;14820;48.682;8.890;2022-08-21T11:49:35;25.00;84.60
26224;DHT22;14820;48.682;8.890;2022-08-21T11:54:49;25.00;82.70
26224;DHT22;14820;48.682;8.890;2022-08-21T12:00:05;24.70;83.80
26224;DHT22;14820;48.682;8.890;2022-08-21T12:02:38;24.60;84.00
26224;DHT22;14820;48.682;8.890;2022-08-21T12:05:07;24.40;84.50
26224;DHT22;14820;48.682;8.890;2022-08-21T12:07:41;24.20;84.20
26224;DHT22;14820;48.682;8.890;2022-08-21T12:10:11;24.10;84.70
26224;DHT22;14820;48.682;8.890;2022-08-21T12:12:40;24.20;84.80
26224;DHT22;14820;48.682;8.890;2022-08-21T12:15:27;24.20;84.20
26224;DHT22;14820;48.682;8.890;2022-08-21T12:17:57;24.20;80.60
26224;DHT22;14820;48.682;8.890;2022-08-21T12:20:44;24.10;81.10
26224;DHT22;14820;48.682;8.890;2022-08-21T12:23:30;24.10;80.60
26224;DHT22;14820;48.682;8.890;2022-08-21T12:26:16;24.10;80.20
26224;DHT22;14820;48.682;8.890;2022-08-21T12:28:43;24.00;80.90
26224;DHT22;14820;48.682;8.890;2022-08-21T12:31:20;23.90;81.40
26224;DHT22;14820;48.682;8.890;2022-08-21T12:33:52;23.80;80.50
26224;DHT22;14820;48.682;8.890;2022-08-21T12:36:22;23.80;81.20
26224;DHT22;14820;48.682;8.890;2022-08-21T12:39:03;23.80;80.90
26224;DHT22;14820;48.682;8.890;2022-08-21T12:44:14;23.80;83.00
26224;DHT22;14820;48.682;8.890;2022-08-21T12:46:59;23.70;81.70
26224;DHT22;14820;48.682;8.890;2022-08-21T12:49:36;23.70;81.70
26224;DHT22;14820;48.682;8.890;2022-08-21T12:54:42;23.70;81.80
26224;DHT22;14820;48.682;8.890;2022-08-21T12:57:23;23.80;81.20
26224;DHT22;14820;48.682;8.890;2022-08-21T12:59:58;23.80;80.00
26224;DHT22;14820;48.682;8.890;2022-08-21T13:02:28;23.70;80.70
26224;DHT22;14820;48.682;8.890;2022-08-21T13:04:56;23.80;80.50
26224;DHT22;14820;48.682;8.890;2022-08-21T13:07:30;24.00;80.50
26224;DHT22;14820;48.682;8.890;2022-08-21T13:10:04;24.20;77.70
26224;DHT22;14820;48.682;8.890;2022-08-21T13:12:31;24.30;77.20
26224;DHT22;14820;48.682;8.890;2022-08-21T13:15:02;24.50;76.80
26224;DHT22;14820;48.682;8.890;2022-08-21T13:17:31;24.60;78.10
26224;DHT22;14820;48.682;8.890;2022-08-21T13:20:06;24.70;77.20
26224;DHT22;14820;48.682;8.890;2022-08-21T13:22:32;24.80;76.60
26224;DHT22;14820;48.682;8.890;2022-08-21T13:25:02;24.80;77.10
26224;DHT22;14820;48.682;8.890;2022-08-21T13:27:34;24.80;78.70
26224;DHT22;14820;48.682;8.890;2022-08-21T13:32:40;25.10;77.10
26224;DHT22;14820;48.682;8.890;2022-08-21T13:35:12;25.20;75.40
26224;DHT22;14820;48.682;8.890;2022-08-21T13:37:41;25.20;75.80
26224;DHT22;14820;48.682;8.890;2022-08-21T13:40:10;25.20;76.10
26224;DHT22;14820;48.682;8.890;2022-08-21T13:42:40;25.30;74.70
26224;DHT22;14820;48.682;8.890;2022-08-21T13:45:15;25.30;74.80
26224;DHT22;14820;48.682;8.890;2022-08-21T13:47:43;25.30;75.40
26224;DHT22;14820;48.682;8.890;2022-08-21T13:50:13;25.40;75.80
26224;DHT22;14820;48.682;8.890;2022-08-21T13:53:03;25.50;75.00
26224;DHT22;14820;48.682;8.890;2022-08-21T13:55:41;25.60;75.90
26224;DHT22;14820;48.682;8.890;2022-08-21T13:58:09;25.50;75.20
26224;DHT22;14820;48.682;8.890;2022-08-21T14:00:47;25.50;75.20
26224;DHT22;14820;48.682;8.890;2022-08-21T14:03:30;25.50;75.70
26224;DHT22;14820;48.682;8.890;2022-08-21T14:05:56;25.40;75.60
26224;DHT22;14820;48.682;8.890;2022-08-21T14:08:27;25.30;75.60
26224;DHT22;14820;48.682;8.890;2022-08-21T14:10:54;25.20;75.30
26224;DHT22;14820;48.682;8.890;2022-08-21T14:15:58;25.20;76.60
26224;DHT22;14820;48.682;8.890;2022-08-21T14:18:23;25.30;75.10
26224;DHT22;14820;48.682;8.890;2022-08-21T14:20:52;25.30;75.00
26224;DHT22;14820;48.682;8.890;2022-08-21T14:23:28;25.30;76.20
26224;DHT22;14820;48.682;8.890;2022-08-21T14:25:59;25.40;76.90
26224;DHT22;14820;48.682;8.890;2022-08-21T14:28:42;25.40;76.60
26224;DHT22;14820;48.682;8.890;2022-08-21T14:31:30;25.40;76.10
26224;DHT22;14820;48.682;8.890;2022-08-21T14:33:58;25.40;75.90
26224;DHT22;14820;48.682;8.890;2022-08-21T14:36:24;25.40;76.20
26224;DHT22;14820;48.682;8.890;2022-08-21T14:38:50;25.30;76.20
26224;DHT22;14820;48.682;8.890;2022-08-21T14:41:23;25.30;76.60
26224;DHT22;14820;48.682;8.890;2022-08-21T14:43:50;25.40;76.90
26224;DHT22;14820;48.682;8.890;2022-08-21T14:46:25;25.40;76.90
26224;DHT22;14820;48.682;8.890;2022-08-21T14:48:52;25.50;77.20
26224;DHT22;14820;48.682;8.890;2022-08-21T14:51:18;25.50;76.40
26224;DHT22;14820;48.682;8.890;2022-08-21T14:53:44;25.40;76.70
26224;DHT22;14820;48.682;8.890;2022-08-21T14:56:10;25.50;76.30
26224;DHT22;14820;48.682;8.890;2022-08-21T14:58:48;25.60;75.40
26224;DHT22;14820;48.682;8.890;2022-08-21T15:01:15;25.60;75.40
26224;DHT22;14820;48.682;8.890;2022-08-21T15:03:42;25.50;74.90
26224;DHT22;14820;48.682;8.890;2022-08-21T15:06:09;25.50;75.60
26224;DHT22;14820;48.682;8.890;2022-08-21T15:08:35;25.50;76.00
26224;DHT22;14820;48.682;8.890;2022-08-21T15:11:02;25.50;75.70
26224;DHT22;14820;48.682;8.890;2022-08-21T15:13:28;25.40;75.40
26224;DHT22;14820;48.682;8.890;2022-08-21T15:15:54;25.40;75.10
26224;DHT22;14820;48.682;8.890;2022-08-21T15:18:23;25.30;74.80
26224;DHT22;14820;48.682;8.890;2022-08-21T15:20:49;25.20;75.30
26224;DHT22;14820;48.682;8.890;2022-08-21T15:23:15;25.30;75.10
26224;DHT22;14820;48.682;8.890;2022-08-21T15:25:43;25.30;74.60
26224;DHT22;14820;48.682;8.890;2022-08-21T15:28:09;25.30;74.40
26224;DHT22;14820;48.682;8.890;2022-08-21T15:30:36;25.30;74.00
26224;DHT22;14820;48.682;8.890;2022-08-21T15:33:02;25.20;74.70
26224;DHT22;14820;48.682;8.890;2022-08-21T15:35:28;25.20;75.00
26224;DHT22;14820;48.682;8.890;2022-08-21T15:37:54;25.20;74.70
26224;DHT22;14820;48.682;8.890;2022-08-21T15:40:19;25.40;74.80
26224;DHT22;14820;48.682;8.890;2022-08-21T15:42:45;25.80;74.10
26224;DHT22;14820;48.682;8.890;2022-08-21T15:45:12;26.20;75.60
26224;DHT22;14820;48.682;8.890;2022-08-21T15:47:39;26.60;78.50
26224;DHT22;14820;48.682;8.890;2022-08-21T15:50:08;27.20;80.40
26224;DHT22;14820;48.682;8.890;2022-08-21T15:52:35;27.50;81.00
26224;DHT22;14820;48.682;8.890;2022-08-21T15:55:00;27.90;80.30
26224;DHT22;14820;48.682;8.890;2022-08-21T15:57:26;28.10;77.30
26224;DHT22;14820;48.682;8.890;2022-08-21T15:59:57;28.30;72.20
26224;DHT22;14820;48.682;8.890;2022-08-21T16:02:27;28.00;68.90
26224;DHT22;14820;48.682;8.890;2022-08-21T16:04:53;27.60;68.80
26224;DHT22;14820;48.682;8.890;2022-08-21T16:07:19;27.30;68.60
26224;DHT22;14820;48.682;8.890;2022-08-21T16:09:45;27.10;69.60
26224;DHT22;14820;48.682;8.890;2022-08-21T16:12:23;26.80;69.30
26224;DHT22;14820;48.682;8.890;2022-08-21T16:14:51;26.50;68.20
26224;DHT22;14820;48.682;8.890;2022-08-21T16:17:17;26.20;68.70
26224;DHT22;14820;48.682;8.890;2022-08-21T16:19:42;26.00;69.30
26224;DHT22;14820;48.682;8.890;2022-08-21T16:22:08;26.00;73.30
26224;DHT22;14820;48.682;8.890;2022-08-21T16:24:34;26.40;75.80
26224;DHT22;14820;48.682;8.890;2022-08-21T16:27:01;26.60;73.30
26224;DHT22;14820;48.682;8.890;2022-08-21T16:29:30;26.60;70.90
26224;DHT22;14820;48.682;8.890;2022-08-21T16:31:58;26.50;69.70
26224;DHT22;14820;48.682;8.890;2022-08-21T16:34:23;26.40;70.50
26224;DHT22;14820;48.682;8.890;2022-08-21T16:36:49;26.30;70.70
26224;DHT22;14820;48.682;8.890;2022-08-21T16:39:15;26.20;71.90
26224;DHT22;14820;48.682;8.890;2022-08-21T16:41:41;26.00;73.30
26224;DHT22;14820;48.682;8.890;2022-08-21T16:44:07;26.00;72.70
26224;DHT22;14820;48.682;8.890;2022-08-21T16:46:35;25.80;72.10
26224;DHT22;14820;48.682;8.890;2022-08-21T16:49:01;25.70;72.00